createdAt,value
2022-10-26T00:05:14.253Z,8.50
2022-10-26T00:15:18.243Z,8.70
2022-10-26T00:25:22.885Z,8.50
2022-10-26T00:35:41.401Z,8.10
2022-10-26T00:45:53.087Z,8.20
2022-10-26T00:55:57.866Z,7.90
2022-10-26T01:06:05.145Z,8.10
2022-10-26T01:16:27.420Z,8.30
2022-10-26T01:26:55.855Z,8.40
2022-10-26T01:37:08.841Z,8.10
2022-10-26T01:47:15.883Z,7.40
2022-10-26T01:57:22.619Z,7.00
2022-10-26T02:07:35.068Z,6.70
2022-10-26T02:17:51.961Z,6.30
2022-10-26T02:28:00.440Z,5.90
2022-10-26T02:38:09.314Z,5.70
2022-10-26T02:48:12.597Z,5.50
2022-10-26T02:58:23.866Z,5.30
2022-10-26T03:18:36.773Z,4.70
2022-10-26T03:28:39.986Z,4.70
2022-10-26T03:38:44.588Z,4.70
2022-10-26T03:48:47.798Z,4.40
2022-10-26T03:58:52.408Z,4.30
2022-10-26T04:08:58.860Z,4.20
2022-10-26T04:19:03.498Z,4.10
2022-10-26T04:29:07.690Z,4.40
2022-10-26T04:39:12.367Z,3.70
2022-10-26T04:49:15.655Z,3.80
2022-10-26T04:59:20.254Z,3.70
2022-10-26T05:09:23.469Z,3.60
2022-10-26T05:19:28.154Z,3.40
2022-10-26T05:29:31.418Z,3.40
2022-10-26T05:39:36.000Z,3.30
2022-10-26T05:49:39.411Z,3.40
2022-10-26T05:59:44.758Z,3.60
2022-10-26T06:09:49.840Z,4.10
2022-10-26T06:20:10.655Z,5.00
2022-10-26T06:30:14.342Z,6.10
2022-10-26T06:40:20.466Z,6.80
2022-10-26T06:50:38.772Z,7.50
2022-10-26T07:00:45.400Z,10.20
2022-10-26T07:10:48.962Z,13.50
2022-10-26T07:20:53.548Z,16.50
2022-10-26T07:30:59.481Z,20.50
2022-10-26T07:41:05.376Z,23.90
2022-10-26T07:51:08.851Z,26.40
2022-10-26T08:01:15.919Z,28.60
2022-10-26T08:11:19.539Z,30.90
2022-10-26T08:21:36.189Z,32.00
2022-10-26T08:31:42.969Z,34.20
2022-10-26T08:41:53.539Z,35.90
2022-10-26T08:52:00.338Z,37.10
2022-10-26T09:02:12.399Z,38.80
2022-10-26T09:12:26.759Z,40.00
2022-10-26T09:22:39.316Z,41.00
2022-10-26T09:32:47.565Z,42.50
2022-10-26T09:42:59.787Z,43.50
2022-10-26T09:53:03.193Z,43.70
2022-10-26T10:03:21.096Z,44.90
2022-10-26T10:13:27.181Z,46.20
2022-10-26T10:23:34.665Z,46.40
2022-10-26T10:33:41.333Z,46.80
2022-10-26T10:43:49.069Z,46.40
2022-10-26T10:53:55.372Z,47.00
2022-10-26T11:04:30.474Z,48.30
2022-10-26T11:14:39.378Z,48.80
2022-10-26T11:24:50.481Z,48.20
2022-10-26T11:35:00.473Z,48.20
2022-10-26T11:45:14.674Z,48.40
2022-10-26T11:55:19.829Z,47.90
2022-10-26T12:05:33.883Z,47.90
2022-10-26T12:16:03.597Z,48.50
2022-10-26T12:26:53.734Z,47.50
2022-10-26T12:37:24.513Z,46.60
2022-10-26T12:48:10.632Z,45.40
2022-10-26T12:59:10.433Z,45.20
2022-10-26T13:09:21.930Z,44.20
2022-10-26T13:19:28.462Z,43.10
2022-10-26T13:29:34.316Z,42.20
2022-10-26T13:39:40.650Z,42.60
2022-10-26T13:49:48.649Z,41.30
2022-10-26T13:59:53.382Z,38.90
2022-10-26T14:09:59.475Z,39.00
2022-10-26T14:20:04.260Z,34.30
2022-10-26T14:30:24.254Z,26.00
2022-10-26T14:40:31.814Z,22.20
2022-10-26T14:50:36.621Z,20.00
2022-10-26T15:00:40.455Z,18.50
2022-10-26T15:10:49.761Z,17.10
2022-10-26T15:20:54.047Z,16.00
2022-10-26T15:31:04.558Z,14.80
2022-10-26T15:41:17.316Z,13.70
2022-10-26T15:51:22.411Z,12.70
2022-10-26T16:01:29.436Z,11.90
2022-10-26T16:11:34.895Z,11.20
2022-10-26T16:21:38.187Z,10.50
2022-10-26T16:31:42.817Z,9.90
2022-10-26T16:41:46.034Z,9.40
2022-10-26T16:51:52.600Z,8.90
2022-10-26T17:01:55.994Z,8.60
2022-10-26T17:12:02.086Z,8.50
2022-10-26T17:22:08.038Z,8.20
2022-10-26T17:32:15.196Z,8.00
2022-10-26T17:42:18.835Z,7.80
2022-10-26T17:52:24.782Z,7.80
2022-10-26T18:02:28.392Z,7.60
2022-10-26T18:12:33.577Z,7.60
2022-10-26T18:22:36.850Z,7.60
2022-10-26T18:32:41.475Z,7.70
2022-10-26T18:42:44.723Z,8.00
2022-10-26T18:52:49.414Z,7.00
2022-10-26T19:02:52.888Z,7.00
2022-10-26T19:12:57.818Z,6.90
2022-10-26T19:23:01.112Z,6.70
2022-10-26T19:33:05.841Z,6.50
2022-10-26T19:43:09.115Z,6.40
2022-10-26T19:53:17.338Z,6.20
2022-10-26T20:03:20.942Z,6.00
2022-10-26T20:13:25.838Z,5.70
2022-10-26T20:23:29.060Z,5.40
2022-10-26T20:33:33.640Z,5.10
2022-10-26T20:43:40.049Z,4.90
2022-10-26T20:53:53.319Z,4.80
2022-10-26T21:03:59.716Z,4.70
2022-10-26T21:14:05.487Z,4.60
2022-10-26T21:24:09.360Z,4.50
2022-10-26T21:34:14.112Z,4.40
2022-10-26T21:44:39.855Z,4.30
2022-10-26T21:54:42.079Z,4.10
2022-10-26T22:04:45.345Z,4.00
2022-10-26T22:14:49.994Z,4.20
2022-10-26T22:24:53.336Z,4.20
2022-10-26T22:35:10.748Z,4.10
2022-10-26T22:45:20.898Z,3.90
2022-10-26T22:55:25.609Z,3.70
2022-10-26T23:05:28.946Z,3.60
2022-10-26T23:15:33.654Z,4.40
2022-10-26T23:25:36.970Z,3.30
2022-10-26T23:35:42.677Z,3.20
2022-10-26T23:45:45.973Z,3.00
2022-10-26T23:55:50.915Z,3.20
